Time;durP1;ratioP1;P1;durP2;ratioP2;P2;SDS_P1;SDS_P2;PMS_P1;PMS_P2;Temp;Humidity;BMP_temperature;BMP_pressure;BME280_temperature;BME280_humidity;BME280_pressure;Samples;Min_cycle;Max_cycle;Signal;HPM_P1;HPM_P2
2022/10/09 00:01:17;;;;;;;11.57;5.70;;;;;;;7.28;100.00;102435.19;5092997;28;20407;-51
2022/10/09 00:03:47;;;;;;;11.90;5.68;;;;;;;7.34;100.00;102428.09;5095040;28;20056;-48
2022/10/09 00:06:19;;;;;;;12.45;5.80;;;;;;;7.36;100.00;102424.53;5093579;28;20052;-49
2022/10/09 00:08:47;;;;;;;14.10;6.13;;;;;;;7.24;100.00;102433.56;5094282;28;20176;-48
2022/10/09 00:11:17;;;;;;;10.75;5.95;;;;;;;7.27;100.00;102427.41;5093987;28;20467;-48
2022/10/09 00:13:46;;;;;;;14.75;6.32;;;;;;;7.17;100.00;102421.53;5093639;28;20047;-50
2022/10/09 00:16:15;;;;;;;10.88;5.30;;;;;;;7.20;100.00;102426.69;5095036;28;20143;-46
2022/10/09 00:18:44;;;;;;;14.02;6.07;;;;;;;7.16;100.00;102425.06;5095225;28;20052;-44
2022/10/09 00:21:20;;;;;;;14.85;6.35;;;;;;;7.15;100.00;102428.56;5094976;28;20048;-48
2022/10/09 00:23:48;;;;;;;13.73;5.97;;;;;;;7.16;100.00;102427.66;5095014;28;20090;-46
2022/10/09 00:26:17;;;;;;;15.05;6.32;;;;;;;7.16;100.00;102430.28;5095516;28;20067;-47
2022/10/09 00:28:45;;;;;;;15.20;6.22;;;;;;;7.19;100.00;102430.19;5093686;28;20560;-47
2022/10/09 00:31:15;;;;;;;12.70;6.00;;;;;;;7.16;100.00;102426.78;5092618;28;20459;-46
2022/10/09 00:33:43;;;;;;;13.32;6.30;;;;;;;7.05;100.00;102430.56;5094854;28;20055;-48
2022/10/09 00:36:14;;;;;;;12.75;6.35;;;;;;;7.09;100.00;102431.34;5094834;28;20044;-48
2022/10/09 00:38:43;;;;;;;16.02;6.47;;;;;;;7.06;100.00;102427.03;5093888;28;20074;-46
2022/10/09 00:41:15;;;;;;;9.88;5.75;;;;;;;6.93;100.00;102429.09;5093174;28;20067;-50
2022/10/09 00:43:46;;;;;;;11.30;5.68;;;;;;;6.98;100.00;102430.72;5091497;28;20047;-51
2022/10/09 00:46:24;;;;;;;12.95;5.60;;;;;;;7.02;100.00;102432.38;5092333;28;20487;-53
2022/10/09 00:48:59;;;;;;;13.90;6.28;;;;;;;6.98;100.00;102430.72;5092708;28;20115;-50
2022/10/09 00:51:28;;;;;;;14.13;6.55;;;;;;;6.90;100.00;102433.56;5093114;28;20461;-50
2022/10/09 00:53:59;;;;;;;10.55;5.90;;;;;;;6.87;100.00;102437.09;5092896;28;20048;-50
2022/10/09 00:56:28;;;;;;;12.57;6.63;;;;;;;6.77;100.00;102436.44;5094841;28;20109;-49
2022/10/09 00:58:58;;;;;;;12.70;6.00;;;;;;;6.65;100.00;102435.88;5095051;28;20518;-49
2022/10/09 01:01:26;;;;;;;9.63;5.50;;;;;;;6.78;100.00;102432.09;5091705;28;20074;-50
2022/10/09 01:03:54;;;;;;;12.70;6.13;;;;;;;6.79;100.00;102435.56;5091587;28;20553;-49
2022/10/09 01:06:32;;;;;;;15.65;6.20;;;;;;;6.75;100.00;102434.78;5092610;28;20051;-50
2022/10/09 01:09:08;;;;;;;12.55;6.80;;;;;;;6.73;100.00;102437.41;5093356;28;20101;-53
2022/10/09 01:11:46;;;;;;;11.15;6.40;;;;;;;6.69;100.00;102430.53;5093816;28;20048;-51
2022/10/09 01:14:22;;;;;;;14.15;6.40;;;;;;;6.76;100.00;102432.13;5092067;28;20102;-53
2022/10/09 01:16:57;;;;;;;11.98;6.07;;;;;;;6.70;100.00;102440.09;5093666;28;20040;-49
2022/10/09 01:19:44;;;;;;;15.57;6.88;;;;;;;6.71;100.00;102433.97;5094088;28;20048;-49
2022/10/09 01:22:29;;;;;;;12.35;6.13;;;;;;;6.62;100.00;102430.72;5094192;28;20028;-49
2022/10/09 01:25:05;;;;;;;13.55;6.65;;;;;;;6.65;100.00;102428.88;5092808;28;20105;-48
2022/10/09 01:27:37;;;;;;;12.73;5.97;;;;;;;6.66;100.00;102429.75;5092150;28;20071;-49
2022/10/09 01:30:08;;;;;;;12.57;6.10;;;;;;;6.66;100.00;102422.78;5093181;28;20051;-49
2022/10/09 01:32:39;;;;;;;10.45;6.03;;;;;;;6.59;100.00;102424.66;5091559;28;20043;-49
2022/10/09 01:35:10;;;;;;;10.82;6.20;;;;;;;6.57;100.00;102417.75;5091612;28;20064;-50
2022/10/09 01:37:42;;;;;;;13.45;6.30;;;;;;;6.49;100.00;102415.34;5091969;28;20048;-48
2022/10/09 01:40:12;;;;;;;12.07;5.80;;;;;;;6.59;100.00;102405.53;5092172;28;20105;-49
2022/10/09 01:42:42;;;;;;;14.90;6.20;;;;;;;6.48;100.00;102405.75;5091673;28;20368;-47
2022/10/09 01:45:12;;;;;;;13.38;6.30;;;;;;;6.56;100.00;102406.44;5091201;28;20575;-48
2022/10/09 01:47:40;;;;;;;13.63;6.63;;;;;;;6.47;100.00;102403.19;5090295;28;20139;-48
2022/10/09 01:50:14;;;;;;;15.40;6.35;;;;;;;6.46;100.00;102407.53;5093312;28;20093;-50
2022/10/09 01:52:49;;;;;;;12.65;6.00;;;;;;;6.53;100.00;102409.13;5091318;28;20036;-48
2022/10/09 01:55:37;;;;;;;14.20;6.43;;;;;;;6.39;100.00;102411.19;5091620;28;20083;-49
2022/10/09 01:58:14;;;;;;;14.38;6.43;;;;;;;6.36;100.00;102409.50;5093157;28;20075;-47
2022/10/09 02:00:47;;;;;;;11.35;6.40;;;;;;;6.33;100.00;102401.75;5093595;28;20063;-51
2022/10/09 02:03:18;;;;;;;14.10;6.20;;;;;;;6.28;100.00;102397.53;5093492;28;20036;-48
2022/10/09 02:05:51;;;;;;;11.98;6.05;;;;;;;6.31;100.00;102400.91;5092733;28;20056;-47
2022/10/09 02:08:21;;;;;;;11.60;6.07;;;;;;;6.25;100.00;102401.06;5091116;28;20502;-52
2022/10/09 02:10:54;;;;;;;12.05;6.00;;;;;;;6.36;100.00;102398.22;5091351;28;20040;-52
2022/10/09 02:13:23;;;;;;;11.60;5.72;;;;;;;6.30;100.00;102396.59;5090710;28;20101;-51
2022/10/09 02:15:56;;;;;;;15.18;6.22;;;;;;;6.19;100.00;102391.59;5090829;28;20110;-52
2022/10/09 02:18:31;;;;;;;10.80;5.85;;;;;;;6.18;100.00;102392.50;5090048;28;20555;-48
2022/10/09 02:21:07;;;;;;;9.88;5.50;;;;;;;6.21;100.00;102392.41;5091092;28;20032;-48
2022/10/09 02:23:38;;;;;;;11.32;6.18;;;;;;;6.13;100.00;102383.03;5090908;28;20044;-48
2022/10/09 02:26:07;;;;;;;10.27;5.22;;;;;;;6.15;100.00;102389.94;5091045;28;20056;-47
2022/10/09 02:28:38;;;;;;;11.02;4.95;;;;;;;6.08;100.00;102388.34;5091781;28;20044;-51
2022/10/09 02:31:19;;;;;;;9.90;4.97;;;;;;;6.03;100.00;102382.38;5093160;28;20433;-49
2022/10/09 02:33:55;;;;;;;10.43;5.72;;;;;;;6.06;100.00;102383.16;5093200;28;20206;-49
2022/10/09 02:36:27;;;;;;;13.00;5.53;;;;;;;5.96;100.00;102386.84;5090787;28;20051;-49
2022/10/09 02:38:56;;;;;;;11.60;5.45;;;;;;;5.97;100.00;102383.34;5090883;28;20047;-47
2022/10/09 02:41:24;;;;;;;10.20;5.95;;;;;;;5.89;100.00;102382.63;5092988;28;20402;-50
2022/10/09 02:43:54;;;;;;;10.73;5.68;;;;;;;6.00;100.00;102382.44;5092826;28;20506;-47
2022/10/09 02:46:22;;;;;;;9.98;5.50;;;;;;;5.95;100.00;102384.28;5093001;28;20119;-51
2022/10/09 02:48:50;;;;;;;12.57;5.57;;;;;;;5.93;100.00;102374.72;5089573;28;20044;-51
2022/10/09 02:51:18;;;;;;;9.65;5.28;;;;;;;5.91;100.00;102373.03;5090412;28;20379;-49
2022/10/09 02:53:47;;;;;;;11.95;5.78;;;;;;;5.95;100.00;102371.22;5091517;28;20051;-48
2022/10/09 02:56:15;;;;;;;11.52;6.13;;;;;;;5.92;100.00;102377.34;5089846;28;20052;-48
2022/10/09 02:58:43;;;;;;;8.57;5.30;;;;;;;5.90;100.00;102368.69;5089626;28;20055;-47
2022/10/09 03:01:14;;;;;;;11.38;4.88;;;;;;;5.88;100.00;102379.16;5092493;28;20447;-48
2022/10/09 03:03:42;;;;;;;10.95;5.55;;;;;;;5.98;100.00;102381.63;5092702;28;20048;-48
2022/10/09 03:06:12;;;;;;;9.90;5.45;;;;;;;5.82;100.00;102374.09;5091126;28;20135;-48
2022/10/09 03:08:43;;;;;;;9.18;5.03;;;;;;;5.77;100.00;102375.94;5092577;28;20425;-49
2022/10/09 03:11:12;;;;;;;8.63;4.68;;;;;;;5.79;100.00;102374.13;5090972;28;20082;-48
2022/10/09 03:13:41;;;;;;;8.90;5.03;;;;;;;5.88;100.00;102363.50;5090062;28;20417;-46
2022/10/09 03:16:12;;;;;;;8.35;4.80;;;;;;;5.78;100.00;102363.72;5089913;28;20119;-46
2022/10/09 03:18:42;;;;;;;9.95;5.30;;;;;;;5.73;100.00;102363.81;5089279;28;20105;-49
2022/10/09 03:21:11;;;;;;;9.65;4.80;;;;;;;5.76;100.00;102367.22;5090390;28;20177;-51
2022/10/09 03:23:39;;;;;;;10.27;4.82;;;;;;;5.69;100.00;102362.16;5090043;28;20051;-48
2022/10/09 03:26:11;;;;;;;8.20;4.82;;;;;;;5.69;100.00;102357.78;5089564;28;20052;-51
2022/10/09 03:28:41;;;;;;;8.27;4.78;;;;;;;5.69;100.00;102357.78;5089823;28;20498;-52
2022/10/09 03:31:10;;;;;;;7.70;4.20;;;;;;;5.70;100.00;102350.81;5089661;28;20060;-49
2022/10/09 03:33:59;;;;;;;7.95;4.85;;;;;;;5.66;100.00;102357.88;5089073;28;20043;-48
2022/10/09 03:36:28;;;;;;;7.22;4.40;;;;;;;5.66;100.00;102363.09;5090202;28;20051;-53
2022/10/09 03:38:56;;;;;;;7.22;4.47;;;;;;;5.64;100.00;102359.63;5090372;28;20036;-50
2022/10/09 03:41:24;;;;;;;8.30;4.88;;;;;;;5.58;100.00;102358.00;5088642;28;20055;-52
2022/10/09 03:43:52;;;;;;;7.47;4.43;;;;;;;5.59;100.00;102351.91;5090163;28;20055;-48
2022/10/09 03:46:20;;;;;;;9.00;4.35;;;;;;;5.62;100.00;102355.34;5092154;28;20052;-48
2022/10/09 03:48:48;;;;;;;9.85;4.43;;;;;;;5.64;100.00;102354.41;5089318;28;20048;-47
2022/10/09 03:51:18;;;;;;;8.45;4.28;;;;;;;5.55;100.00;102365.06;5089881;28;20040;-53
2022/10/09 03:53:46;;;;;;;7.68;4.30;;;;;;;5.59;100.00;102359.75;5090315;28;20098;-51
2022/10/09 03:56:14;;;;;;;7.32;4.40;;;;;;;5.56;100.00;102366.75;5091899;28;20090;-48
2022/10/09 03:58:42;;;;;;;8.43;4.15;;;;;;;5.54;100.00;102374.63;5090860;28;20499;-51
2022/10/09 04:01:10;;;;;;;9.40;4.30;;;;;;;5.58;100.00;102375.44;5088013;28;20051;-48
2022/10/09 04:03:39;;;;;;;7.78;4.53;;;;;;;5.56;100.00;102378.06;5088492;28;20494;-47
2022/10/09 04:06:07;;;;;;;6.68;4.10;;;;;;;5.50;100.00;102385.16;5089853;28;20044;-46
2022/10/09 04:08:37;;;;;;;7.70;4.38;;;;;;;5.46;100.00;102380.91;5092363;28;20123;-52
2022/10/09 04:11:05;;;;;;;7.97;4.35;;;;;;;5.45;100.00;102382.63;5094593;28;20044;-52
2022/10/09 04:13:34;;;;;;;9.85;4.55;;;;;;;5.49;100.00;102379.06;5093044;28;20036;-46
2022/10/09 04:16:02;;;;;;;8.88;4.72;;;;;;;5.38;100.00;102371.44;5094690;28;20051;-53
2022/10/09 04:18:30;;;;;;;9.65;4.65;;;;;;;5.36;100.00;102375.84;5092064;28;20040;-51
2022/10/09 04:20:58;;;;;;;8.98;5.28;;;;;;;5.42;100.00;102375.72;5093366;28;20086;-49
2022/10/09 04:23:27;;;;;;;8.40;5.28;;;;;;;5.45;100.00;102369.56;5094442;28;20048;-49
2022/10/09 04:25:59;;;;;;;8.38;4.30;;;;;;;5.39;100.00;102369.72;5093016;28;20047;-45
2022/10/09 04:28:29;;;;;;;8.48;4.80;;;;;;;5.35;100.00;102363.69;5094077;28;20048;-48
2022/10/09 04:30:58;;;;;;;9.95;4.68;;;;;;;5.28;100.00;102361.22;5095515;28;20382;-48
2022/10/09 04:33:26;;;;;;;9.75;4.38;;;;;;;5.25;100.00;102367.38;5095615;28;20514;-46
2022/10/09 04:35:56;;;;;;;9.05;4.18;;;;;;;5.25;100.00;102365.59;5094164;28;20052;-44
2022/10/09 04:38:25;;;;;;;7.75;4.32;;;;;;;5.18;100.00;102358.78;5093091;28;20075;-44
2022/10/09 04:40:59;;;;;;;7.75;4.13;;;;;;;5.19;100.00;102364.84;5094517;28;20048;-47
2022/10/09 04:43:28;;;;;;;6.32;3.90;;;;;;;5.24;100.00;102369.09;5094451;28;20071;-45
2022/10/09 04:45:57;;;;;;;7.53;4.18;;;;;;;5.27;100.00;102364.72;5094680;28;20048;-45
2022/10/09 04:48:25;;;;;;;6.45;3.97;;;;;;;5.18;100.00;102366.63;5095213;28;20044;-45
2022/10/09 04:50:53;;;;;;;7.72;3.88;;;;;;;5.19;100.00;102368.31;5095135;28;20054;-45
2022/10/09 04:53:22;;;;;;;7.53;3.92;;;;;;;5.21;100.00;102363.94;5095299;28;20040;-45
2022/10/09 04:55:50;;;;;;;9.65;4.20;;;;;;;5.17;100.00;102364.88;5094866;28;20122;-45
2022/10/09 04:58:20;;;;;;;7.03;3.90;;;;;;;5.16;100.00;102368.38;5094332;28;20402;-46
2022/10/09 05:00:48;;;;;;;9.00;4.38;;;;;;;5.09;100.00;102366.78;5093404;28;20106;-49
2022/10/09 05:03:17;;;;;;;8.43;4.53;;;;;;;5.10;100.00;102354.59;5091004;28;20080;-49
2022/10/09 05:05:46;;;;;;;9.07;3.60;;;;;;;5.05;100.00;102358.13;5093078;28;20101;-47
2022/10/09 05:08:17;;;;;;;7.47;4.20;;;;;;;4.98;100.00;102363.50;5090406;28;20177;-48
2022/10/09 05:10:48;;;;;;;7.20;3.90;;;;;;;4.96;100.00;102353.06;5094470;28;20396;-46
2022/10/09 05:13:17;;;;;;;6.18;3.70;;;;;;;4.93;100.00;102360.09;5094438;28;20101;-47
2022/10/09 05:15:46;;;;;;;8.73;3.67;;;;;;;5.01;100.00;102359.06;5092927;28;20048;-51
2022/10/09 05:18:14;;;;;;;8.68;3.88;;;;;;;5.03;100.00;102365.13;5091972;28;20490;-47
2022/10/09 05:20:42;;;;;;;8.32;3.53;;;;;;;5.02;100.00;102357.34;5092205;28;20056;-47
2022/10/09 05:23:10;;;;;;;6.65;3.55;;;;;;;4.94;100.00;102357.47;5092242;28;20054;-48
2022/10/09 05:25:38;;;;;;;6.93;3.60;;;;;;;4.89;100.00;102352.34;5094441;28;20105;-44
2022/10/09 05:28:06;;;;;;;7.90;3.50;;;;;;;4.96;100.00;102362.66;5094719;28;20419;-45
2022/10/09 05:30:35;;;;;;;8.25;3.83;;;;;;;4.99;100.00;102365.19;5094584;28;20115;-45
2022/10/09 05:33:04;;;;;;;6.55;3.47;;;;;;;4.91;100.00;102353.16;5094135;28;20048;-46
2022/10/09 05:35:32;;;;;;;6.95;3.55;;;;;;;4.92;100.00;102354.00;5092076;28;20050;-45
2022/10/09 05:38:00;;;;;;;6.93;3.95;;;;;;;4.85;100.00;102348.06;5092365;28;20101;-46
2022/10/09 05:40:29;;;;;;;6.43;3.30;;;;;;;4.84;100.00;102346.34;5094207;28;20056;-45
2022/10/09 05:42:57;;;;;;;7.60;3.55;;;;;;;4.87;100.00;102355.88;5094092;28;20075;-45
2022/10/09 05:45:25;;;;;;;6.28;3.45;;;;;;;4.80;100.00;102352.50;5092587;28;20054;-47
2022/10/09 05:47:53;;;;;;;6.05;3.13;;;;;;;4.77;100.00;102349.91;5090885;28;20044;-45
2022/10/09 05:50:23;;;;;;;7.72;3.45;;;;;;;4.80;100.00;102347.28;5091832;28;20495;-48
2022/10/09 05:52:51;;;;;;;7.88;3.38;;;;;;;4.75;100.00;102354.31;5091599;28;20047;-47
2022/10/09 05:55:19;;;;;;;11.30;4.10;;;;;;;4.78;100.00;102345.59;5090092;28;20059;-47
2022/10/09 05:57:49;;;;;;;8.82;4.25;;;;;;;4.74;100.00;102349.97;5091569;28;20097;-47
2022/10/09 06:00:18;;;;;;;7.35;3.28;;;;;;;4.86;100.00;102348.91;5091632;28;20123;-45
2022/10/09 06:02:49;;;;;;;5.38;2.88;;;;;;;4.84;100.00;102346.34;5090547;28;20036;-45
2022/10/09 06:05:17;;;;;;;8.98;3.70;;;;;;;4.68;100.00;102350.09;5091759;28;20495;-46
2022/10/09 06:07:48;;;;;;;7.00;3.08;;;;;;;4.81;100.00;102356.81;5093645;28;20047;-43
2022/10/09 06:10:17;;;;;;;8.57;3.33;;;;;;;4.78;100.00;102354.25;5091968;28;20046;-45
2022/10/09 06:12:45;;;;;;;14.20;3.65;;;;;;;4.82;100.00;102358.53;5091254;28;20093;-45
2022/10/09 06:15:15;;;;;;;6.70;3.33;;;;;;;4.74;100.00;102357.81;5092723;28;20305;-44
2022/10/09 06:17:44;;;;;;;7.60;4.03;;;;;;;4.78;100.00;102356.88;5089876;28;20052;-44
2022/10/09 06:20:12;;;;;;;7.22;3.85;;;;;;;4.83;100.00;102359.41;5090971;28;20508;-45
2022/10/09 06:22:40;;;;;;;9.10;3.92;;;;;;;4.87;100.00;102358.47;5090934;28;20048;-46
2022/10/09 06:25:10;;;;;;;12.38;4.30;;;;;;;4.95;100.00;102359.19;5092093;28;20048;-46
2022/10/09 06:27:38;;;;;;;10.07;4.57;;;;;;;4.90;100.00;102359.25;5090201;28;20044;-44
2022/10/09 06:30:08;;;;;;;7.25;3.90;;;;;;;5.01;100.00;102368.66;5091565;28;20052;-46
2022/10/09 06:32:36;;;;;;;12.10;4.93;;;;;;;5.04;100.00;102355.56;5092530;28;20048;-45
2022/10/09 06:35:05;;;;;;;11.25;5.07;;;;;;;4.99;100.00;102367.81;5093225;28;20047;-46
2022/10/09 06:37:33;;;;;;;10.05;4.60;;;;;;;5.00;100.00;102367.78;5093061;28;20056;-46
2022/10/09 06:40:01;;;;;;;9.35;5.22;;;;;;;5.00;100.00;102366.94;5092940;28;20046;-47
2022/10/09 06:42:31;;;;;;;11.05;4.90;;;;;;;5.01;100.00;102369.50;5093221;28;20062;-45
2022/10/09 06:45:00;;;;;;;12.18;4.63;;;;;;;5.09;100.00;102364.16;5092759;28;20048;-46
2022/10/09 06:47:28;;;;;;;9.98;4.68;;;;;;;5.15;100.00;102363.19;5092934;28;20078;-46
2022/10/09 06:49:57;;;;;;;8.23;4.22;;;;;;;5.12;100.00;102358.88;5091799;28;20180;-48
2022/10/09 06:52:25;;;;;;;8.40;4.30;;;;;;;5.19;100.00;102370.06;5090265;28;20302;-45
2022/10/09 06:54:53;;;;;;;10.45;4.82;;;;;;;5.20;100.00;102369.19;5092167;28;20052;-46
2022/10/09 06:57:21;;;;;;;8.50;5.07;;;;;;;5.31;100.00;102372.44;5092592;28;20048;-45
2022/10/09 06:59:51;;;;;;;9.80;4.72;;;;;;;5.48;100.00;102373.88;5092822;28;20055;-46
2022/10/09 07:02:19;;;;;;;10.82;4.72;;;;;;;5.73;100.00;102371.66;5092735;28;20471;-44
2022/10/09 07:04:47;;;;;;;9.05;5.20;;;;;;;5.98;100.00;102373.78;5092634;28;20052;-47
2022/10/09 07:07:15;;;;;;;9.02;5.10;;;;;;;6.18;100.00;102376.81;5092616;28;20067;-45
2022/10/09 07:09:43;;;;;;;10.32;6.13;;;;;;;6.50;100.00;102372.59;5092611;28;20494;-45
2022/10/09 07:12:11;;;;;;;8.38;5.45;;;;;;;6.62;100.00;102373.22;5091248;28;20051;-45
2022/10/09 07:14:39;;;;;;;8.98;6.13;;;;;;;6.84;100.00;102377.00;5091172;28;20054;-48
2022/10/09 07:17:09;;;;;;;11.10;6.18;;;;;;;7.10;100.00;102368.50;5088543;28;20567;-48
2022/10/09 07:19:37;;;;;;;10.77;5.63;;;;;;;7.29;100.00;102373.22;5090381;28;20052;-46
2022/10/09 07:22:10;;;;;;;14.40;8.00;;;;;;;7.32;100.00;102372.31;5090507;28;20085;-45
2022/10/09 07:24:38;;;;;;;12.05;7.35;;;;;;;7.55;100.00;102369.94;5091832;28;20102;-45
2022/10/09 07:27:06;;;;;;;15.15;7.68;;;;;;;7.72;100.00;102372.06;5088880;28;20067;-44
2022/10/09 07:29:34;;;;;;;15.27;7.55;;;;;;;7.93;100.00;102375.81;5092006;28;20051;-47
2022/10/09 07:32:02;;;;;;;12.68;8.32;;;;;;;8.07;100.00;102378.03;5108204;28;20044;-46
2022/10/09 07:34:38;;;;;;;13.82;7.68;;;;;;;8.05;100.00;102371.09;5090189;28;20044;-46
2022/10/09 07:37:06;;;;;;;11.98;7.10;;;;;;;8.15;100.00;102375.16;5089804;28;20054;-44
2022/10/09 07:39:35;;;;;;;13.93;7.85;;;;;;;8.26;100.00;102373.06;5091215;28;20128;-45
2022/10/09 07:42:04;;;;;;;13.73;7.65;;;;;;;8.52;100.00;102368.81;5092349;28;20074;-44
2022/10/09 07:44:32;;;;;;;13.32;8.43;;;;;;;8.82;100.00;102376.59;5094609;28;20478;-45
2022/10/09 07:47:00;;;;;;;14.32;7.60;;;;;;;9.08;100.00;102359.94;5094787;28;20048;-46
2022/10/09 07:49:28;;;;;;;12.32;7.78;;;;;;;9.09;100.00;102371.28;5096253;28;20465;-46
2022/10/09 07:51:57;;;;;;;16.85;8.95;;;;;;;9.21;100.00;102357.72;5096354;28;20487;-47
2022/10/09 07:54:26;;;;;;;15.70;8.65;;;;;;;9.63;100.00;102372.84;5094412;28;20040;-45
2022/10/09 07:56:54;;;;;;;14.25;8.93;;;;;;;9.79;100.00;102360.00;5092662;28;20426;-47
2022/10/09 07:59:22;;;;;;;14.25;8.60;;;;;;;9.94;100.00;102361.19;5095133;28;20101;-47
2022/10/09 08:01:50;;;;;;;12.43;8.50;;;;;;;10.02;100.00;102360.03;5096033;28;20040;-49
2022/10/09 08:04:20;;;;;;;16.17;8.90;;;;;;;10.16;100.00;102363.00;5096214;28;20097;-46
2022/10/09 08:06:48;;;;;;;15.98;9.05;;;;;;;10.36;100.00;102361.38;5095740;28;20048;-46
2022/10/09 08:09:18;;;;;;;14.43;8.98;;;;;;;10.44;100.00;102357.53;5094540;28;20044;-49
2022/10/09 08:11:46;;;;;;;16.33;9.35;;;;;;;10.60;100.00;102357.75;5096172;28;20465;-49
2022/10/09 08:14:14;;;;;;;20.35;9.02;;;;;;;10.58;100.00;102359.59;5095545;28;20390;-48
2022/10/09 08:16:47;;;;;;;15.48;8.43;;;;;;;10.81;100.00;102358.63;5095438;28;20559;-46
2022/10/09 08:19:18;;;;;;;11.52;8.38;;;;;;;11.00;100.00;102357.84;5094083;28;20047;-46
2022/10/09 08:21:46;;;;;;;15.48;9.00;;;;;;;11.08;100.00;102347.00;5093274;28;20417;-50
2022/10/09 08:24:15;;;;;;;11.80;8.25;;;;;;;11.42;100.00;102348.97;5094756;28;20044;-48
2022/10/09 08:26:44;;;;;;;17.63;9.35;;;;;;;11.66;100.00;102357.56;5093398;28;20105;-45
2022/10/09 08:29:15;;;;;;;14.43;9.80;;;;;;;11.59;100.00;102353.50;5093770;28;20044;-45
2022/10/09 08:31:43;;;;;;;14.57;8.73;;;;;;;11.76;100.00;102357.16;5094795;28;20060;-47
2022/10/09 08:34:12;;;;;;;15.50;8.63;;;;;;;11.90;100.00;102348.59;5095764;28;20055;-46
2022/10/09 08:36:40;;;;;;;16.38;9.60;;;;;;;12.04;100.00;102340.94;5094365;28;20135;-47
2022/10/09 08:39:08;;;;;;;17.63;8.90;;;;;;;12.08;100.00;102342.50;5095186;28;20067;-46
2022/10/09 08:41:47;;;;;;;16.20;8.80;;;;;;;12.35;100.00;102336.78;5093389;28;20139;-51
2022/10/09 08:44:22;;;;;;;15.07;7.97;;;;;;;12.36;100.00;102333.22;5093000;28;20516;-46
2022/10/09 08:46:57;;;;;;;13.60;7.85;;;;;;;12.60;100.00;102325.88;5094168;28;20048;-46
2022/10/09 08:49:31;;;;;;;19.45;8.07;;;;;;;12.80;100.00;102327.53;5095132;28;20040;-47
2022/10/09 08:52:13;;;;;;;12.52;7.25;;;;;;;12.83;100.00;102331.81;5095186;28;20048;-47
2022/10/09 08:54:42;;;;;;;12.23;7.10;;;;;;;12.78;100.00;102325.91;5094635;28;20048;-49
2022/10/09 08:57:14;;;;;;;14.15;7.13;;;;;;;12.90;100.00;102317.34;5094341;28;20131;-48
2022/10/09 08:59:43;;;;;;;14.10;6.97;;;;;;;13.05;100.00;102315.69;5094975;28;20056;-46
2022/10/09 09:02:27;;;;;;;11.07;6.43;;;;;;;13.14;100.00;102314.34;5094784;28;20048;-48
2022/10/09 09:05:08;;;;;;;11.77;6.68;;;;;;;13.29;100.00;102313.56;5094875;28;20032;-48
2022/10/09 09:07:45;;;;;;;12.85;6.68;;;;;;;13.47;100.00;102308.22;5094676;28;20052;-48
2022/10/09 09:10:20;;;;;;;12.40;6.13;;;;;;;13.58;100.00;102311.16;5094886;28;20097;-53
2022/10/09 09:12:55;;;;;;;13.60;5.75;;;;;;;13.68;100.00;102299.13;5094525;28;20044;-51
2022/10/09 09:15:39;;;;;;;13.95;5.93;;;;;;;13.81;100.00;102307.25;5094509;28;20052;-48
2022/10/09 09:18:21;;;;;;;15.48;5.68;;;;;;;13.96;100.00;102297.59;5094306;28;20518;-48
2022/10/09 09:20:52;;;;;;;12.07;5.50;;;;;;;13.95;100.00;102305.63;5094407;28;20052;-51
2022/10/09 09:23:27;;;;;;;10.55;5.25;;;;;;;14.05;100.00;102296.22;5093702;28;20426;-47
2022/10/09 09:25:58;;;;;;;11.20;5.40;;;;;;;14.28;100.00;102296.69;5092158;28;20093;-50
2022/10/09 09:28:30;;;;;;;11.15;5.65;;;;;;;14.43;99.17;102289.66;5093299;28;20085;-50
2022/10/09 09:31:02;;;;;;;11.65;5.95;;;;;;;14.60;98.46;102289.53;5092008;28;20056;-52
2022/10/09 09:33:40;;;;;;;12.32;5.72;;;;;;;14.76;98.63;102284.16;5090918;28;20399;-51
2022/10/09 09:36:20;;;;;;;9.73;5.00;;;;;;;14.98;99.29;102280.22;5092897;28;20071;-53
2022/10/09 09:38:49;;;;;;;13.18;5.68;;;;;;;15.19;96.09;102284.19;5092446;28;20048;-51
2022/10/09 09:41:40;;;;;;;11.05;5.30;;;;;;;15.23;92.62;102274.28;5091923;28;20047;-47
2022/10/09 09:44:12;;;;;;;11.45;5.03;;;;;;;15.42;91.08;102281.94;5090984;28;20449;-47
2022/10/09 09:46:42;;;;;;;9.73;4.97;;;;;;;15.59;91.42;102286.16;5091559;28;20502;-51
2022/10/09 09:49:18;;;;;;;11.43;5.18;;;;;;;15.62;88.38;102280.63;5090175;28;20052;-49
2022/10/09 09:51:49;;;;;;;12.02;5.65;;;;;;;15.52;91.87;102274.22;5093325;28;20119;-50
2022/10/09 09:54:21;;;;;;;13.45;5.20;;;;;;;16.03;88.99;102263.91;5093783;28;20477;-50
2022/10/09 09:56:51;;;;;;;11.45;5.50;;;;;;;16.27;87.00;102257.91;5093464;28;20535;-51
2022/10/09 09:59:43;;;;;;;12.85;5.30;;;;;;;16.55;85.83;102248.03;5093759;28;20125;-48
2022/10/09 10:02:15;;;;;;;11.40;4.78;;;;;;;16.58;81.86;102242.53;5093525;28;20097;-49
2022/10/09 10:04:52;;;;;;;11.68;4.78;;;;;;;16.48;80.67;102236.16;5093259;28;20055;-49
2022/10/09 10:07:31;;;;;;;11.98;5.07;;;;;;;16.62;79.48;102237.84;5090176;28;20059;-48
2022/10/09 10:10:05;;;;;;;8.07;5.15;;;;;;;16.38;80.13;102242.09;5091554;28;20052;-50
2022/10/09 10:12:33;;;;;;;15.65;5.38;;;;;;;16.76;77.44;102235.09;5091227;28;20052;-51
2022/10/09 10:15:03;;;;;;;13.13;5.35;;;;;;;17.17;76.87;102238.50;5091560;28;20364;-48
2022/10/09 10:17:35;;;;;;;9.38;4.70;;;;;;;17.54;76.66;102230.53;5091854;28;20552;-51
2022/10/09 10:20:06;;;;;;;12.23;4.47;;;;;;;17.98;72.05;102228.22;5091527;28;20044;-50
2022/10/09 10:22:35;;;;;;;11.35;4.53;;;;;;;18.11;69.67;102229.00;5092728;28;20104;-57
2022/10/09 10:25:04;;;;;;;9.30;4.20;;;;;;;18.16;67.92;102226.84;5093447;28;20391;-57
2022/10/09 10:27:39;;;;;;;10.98;4.35;;;;;;;18.40;67.06;102218.78;5092982;28;20089;-57
2022/10/09 10:30:15;;;;;;;10.85;4.22;;;;;;;18.28;64.90;102221.56;5092187;28;20392;-50
2022/10/09 10:32:51;;;;;;;8.50;4.03;;;;;;;18.40;62.20;102213.44;5089084;28;20071;-56
2022/10/09 10:35:22;;;;;;;8.43;3.63;;;;;;;18.61;63.07;102206.59;5092144;28;20112;-57
2022/10/09 10:37:58;;;;;;;11.35;3.60;;;;;;;18.87;61.23;102200.06;5092604;28;20040;-57
2022/10/09 10:40:31;;;;;;;10.30;4.50;;;;;;;19.20;61.57;102200.19;5092733;28;20478;-57
2022/10/09 10:43:11;;;;;;;11.57;4.05;;;;;;;19.13;60.98;102199.84;5092583;28;20498;-57
2022/10/09 10:45:49;;;;;;;7.97;3.33;;;;;;;19.31;60.15;102197.50;5092670;28;20048;-57
2022/10/09 10:48:21;;;;;;;9.65;3.95;;;;;;;19.24;58.77;102183.81;5090576;28;20059;-58
2022/10/09 10:50:58;;;;;;;9.85;3.78;;;;;;;19.87;58.88;102182.31;5090454;28;20106;-58
2022/10/09 10:53:41;;;;;;;9.73;3.65;;;;;;;19.46;58.76;102179.41;5090938;28;20044;-58
2022/10/09 10:56:18;;;;;;;9.93;3.60;;;;;;;19.97;57.26;102183.22;5090468;28;20060;-57
2022/10/09 10:59:00;;;;;;;8.63;3.15;;;;;;;20.16;55.39;102165.63;5090279;28;20075;-58
2022/10/09 11:01:39;;;;;;;10.20;3.78;;;;;;;20.10;55.72;102165.19;5089862;28;20163;-59
2022/10/09 11:04:31;;;;;;;8.75;3.60;;;;;;;20.29;53.61;102155.59;5089940;28;20059;-59
2022/10/09 11:07:13;;;;;;;7.43;2.95;;;;;;;20.61;53.13;102154.63;5092185;28;20063;-58
2022/10/09 11:09:52;;;;;;;9.40;3.33;;;;;;;20.99;52.24;102147.75;5092735;28;20052;-58
2022/10/09 11:12:32;;;;;;;8.90;3.17;;;;;;;21.14;53.14;102142.84;5092781;28;20116;-58
2022/10/09 11:15:25;;;;;;;8.52;2.97;;;;;;;21.47;52.03;102137.25;5092508;28;20071;-59
2022/10/09 11:18:09;;;;;;;10.23;3.20;;;;;;;21.95;49.86;102133.72;5092603;28;20082;-58
2022/10/09 11:21:00;;;;;;;7.65;3.22;;;;;;;21.71;49.61;102127.00;5091566;28;20048;-58
2022/10/09 11:23:45;;;;;;;10.93;3.55;;;;;;;21.44;48.02;102135.69;5090026;28;20060;-58
2022/10/09 11:26:24;;;;;;;9.98;3.30;;;;;;;21.15;49.33;102127.66;5092522;28;20105;-59
2022/10/09 11:29:00;;;;;;;7.25;3.10;;;;;;;21.38;48.53;102121.06;5091252;28;20066;-60
2022/10/09 11:31:32;;;;;;;9.10;3.75;;;;;;;21.95;48.31;102118.50;5089828;28;20391;-60
2022/10/09 11:34:09;;;;;;;9.40;3.42;;;;;;;21.76;47.43;102111.34;5089048;28;20498;-59
2022/10/09 11:36:41;;;;;;;7.88;3.00;;;;;;;21.85;46.80;102111.47;5090396;28;20445;-58
2022/10/09 11:39:15;;;;;;;8.00;3.42;;;;;;;22.13;44.66;102107.06;5088613;28;20047;-58